sensor_id;sensor_type;location;lat;lon;timestamp;pressure;altitude;pressure_sealevel;temperature;humidity
53041;BME280;39326;42.650;23.248;2022-07-19T00:01:40;93254.97;;;16.38;54.60
53041;BME280;39326;42.650;23.248;2022-07-19T00:04:06;93254.59;;;16.36;54.49
53041;BME280;39326;42.650;23.248;2022-07-19T00:06:31;93253.50;;;16.30;55.19
53041;BME280;39326;42.650;23.248;2022-07-19T00:08:58;93255.44;;;16.29;55.74
53041;BME280;39326;42.650;23.248;2022-07-19T00:11:23;93254.97;;;16.38;55.38
53041;BME280;39326;42.650;23.248;2022-07-19T00:13:49;93254.22;;;16.37;55.45
53041;BME280;39326;42.650;23.248;2022-07-19T00:16:14;93256.19;;;16.30;56.14
53041;BME280;39326;42.650;23.248;2022-07-19T00:18:40;93253.91;;;16.28;56.13
53041;BME280;39326;42.650;23.248;2022-07-19T00:21:06;93255.88;;;16.24;56.46
53041;BME280;39326;42.650;23.248;2022-07-19T00:23:32;93254.81;;;16.18;57.08
53041;BME280;39326;42.650;23.248;2022-07-19T00:25:57;93253.81;;;15.97;58.66
53041;BME280;39326;42.650;23.248;2022-07-19T00:28:23;93254.53;;;16.05;58.13
53041;BME280;39326;42.650;23.248;2022-07-19T00:30:48;93252.16;;;16.11;58.04
53041;BME280;39326;42.650;23.248;2022-07-19T00:33:14;93253.25;;;16.17;58.22
53041;BME280;39326;42.650;23.248;2022-07-19T00:35:40;93251.00;;;16.12;58.43
53041;BME280;39326;42.650;23.248;2022-07-19T00:38:07;93249.03;;;16.16;58.49
53041;BME280;39326;42.650;23.248;2022-07-19T00:40:33;93255.66;;;16.08;59.05
53041;BME280;39326;42.650;23.248;2022-07-19T00:42:59;93256.06;;;16.06;58.83
53041;BME280;39326;42.650;23.248;2022-07-19T00:45:24;93253.72;;;16.08;59.43
53041;BME280;39326;42.650;23.248;2022-07-19T00:47:50;93253.75;;;16.05;59.67
53041;BME280;39326;42.650;23.248;2022-07-19T00:50:17;93248.00;;;16.06;59.67
53041;BME280;39326;42.650;23.248;2022-07-19T00:53:03;93248.84;;;15.99;59.96
53041;BME280;39326;42.650;23.248;2022-07-19T00:55:32;93260.03;;;15.94;60.48
53041;BME280;39326;42.650;23.248;2022-07-19T00:57:59;93254.25;;;15.92;60.43
53041;BME280;39326;42.650;23.248;2022-07-19T01:00:27;93252.34;;;15.89;60.73
53041;BME280;39326;42.650;23.248;2022-07-19T01:02:54;93253.50;;;15.88;61.31
53041;BME280;39326;42.650;23.248;2022-07-19T01:05:20;93245.09;;;15.83;61.19
53041;BME280;39326;42.650;23.248;2022-07-19T01:07:45;93244.34;;;15.82;61.56
53041;BME280;39326;42.650;23.248;2022-07-19T01:10:12;93243.53;;;15.85;61.64
53041;BME280;39326;42.650;23.248;2022-07-19T01:12:39;93242.06;;;15.77;62.23
53041;BME280;39326;42.650;23.248;2022-07-19T01:15:22;93240.50;;;15.80;62.42
53041;BME280;39326;42.650;23.248;2022-07-19T01:17:49;93244.84;;;15.70;62.74
53041;BME280;39326;42.650;23.248;2022-07-19T01:20:15;93241.75;;;15.71;62.76
53041;BME280;39326;42.650;23.248;2022-07-19T01:22:42;93236.75;;;15.70;62.41
53041;BME280;39326;42.650;23.248;2022-07-19T01:25:08;93238.69;;;15.69;62.75
53041;BME280;39326;42.650;23.248;2022-07-19T01:27:40;93240.63;;;15.69;63.08
53041;BME280;39326;42.650;23.248;2022-07-19T01:30:17;93239.53;;;15.63;63.11
53041;BME280;39326;42.650;23.248;2022-07-19T01:32:43;93234.25;;;15.49;63.52
53041;BME280;39326;42.650;23.248;2022-07-19T01:35:10;93243.09;;;15.49;63.39
53041;BME280;39326;42.650;23.248;2022-07-19T01:37:36;93237.34;;;15.47;63.32
53041;BME280;39326;42.650;23.248;2022-07-19T01:40:03;93243.94;;;15.39;64.51
53041;BME280;39326;42.650;23.248;2022-07-19T01:42:28;93237.38;;;15.40;64.43
53041;BME280;39326;42.650;23.248;2022-07-19T01:44:54;93237.38;;;15.40;64.26
53041;BME280;39326;42.650;23.248;2022-07-19T01:47:19;93240.84;;;15.40;64.36
53041;BME280;39326;42.650;23.248;2022-07-19T01:49:45;93240.13;;;15.33;64.96
53041;BME280;39326;42.650;23.248;2022-07-19T01:52:10;93241.75;;;15.19;66.21
53041;BME280;39326;42.650;23.248;2022-07-19T01:54:36;93236.38;;;15.19;65.79
53041;BME280;39326;42.650;23.248;2022-07-19T01:57:01;93237.16;;;15.20;65.41
53041;BME280;39326;42.650;23.248;2022-07-19T01:59:27;93242.13;;;15.25;65.43
53041;BME280;39326;42.650;23.248;2022-07-19T02:01:52;93239.03;;;15.23;65.56
53041;BME280;39326;42.650;23.248;2022-07-19T02:04:17;93238.28;;;15.23;65.27
53041;BME280;39326;42.650;23.248;2022-07-19T02:06:43;93237.91;;;15.21;65.78
53041;BME280;39326;42.650;23.248;2022-07-19T02:09:08;93240.97;;;15.23;65.60
53041;BME280;39326;42.650;23.248;2022-07-19T02:11:34;93247.50;;;15.22;65.50
53041;BME280;39326;42.650;23.248;2022-07-19T02:14:07;93243.69;;;15.19;65.87
53041;BME280;39326;42.650;23.248;2022-07-19T02:16:35;93245.63;;;15.15;66.11
53041;BME280;39326;42.650;23.248;2022-07-19T02:19:00;93257.59;;;15.07;66.50
53041;BME280;39326;42.650;23.248;2022-07-19T02:21:26;93253.75;;;15.08;66.79
53041;BME280;39326;42.650;23.248;2022-07-19T02:23:51;93254.13;;;15.06;66.73
53041;BME280;39326;42.650;23.248;2022-07-19T02:26:17;93252.97;;;15.04;66.75
53041;BME280;39326;42.650;23.248;2022-07-19T02:28:42;93258.34;;;15.04;66.83
53041;BME280;39326;42.650;23.248;2022-07-19T02:31:08;93258.00;;;15.02;66.99
53041;BME280;39326;42.650;23.248;2022-07-19T02:33:33;93258.41;;;15.00;66.96
53041;BME280;39326;42.650;23.248;2022-07-19T02:35:59;93259.16;;;14.97;67.16
53041;BME280;39326;42.650;23.248;2022-07-19T02:38:24;93257.25;;;14.98;67.40
53041;BME280;39326;42.650;23.248;2022-07-19T02:40:50;93257.63;;;14.96;67.55
53041;BME280;39326;42.650;23.248;2022-07-19T02:43:16;93264.16;;;14.95;67.61
53041;BME280;39326;42.650;23.248;2022-07-19T02:45:41;93264.97;;;14.92;67.59
53041;BME280;39326;42.650;23.248;2022-07-19T02:48:08;93269.97;;;14.86;68.24
53041;BME280;39326;42.650;23.248;2022-07-19T02:50:34;93256.16;;;14.77;67.99
53041;BME280;39326;42.650;23.248;2022-07-19T02:53:00;93268.84;;;14.80;68.22
53041;BME280;39326;42.650;23.248;2022-07-19T02:55:26;93268.84;;;14.80;68.18
53041;BME280;39326;42.650;23.248;2022-07-19T02:57:51;93280.69;;;14.83;67.99
53041;BME280;39326;42.650;23.248;2022-07-19T03:00:17;93273.81;;;14.82;68.13
53041;BME280;39326;42.650;23.248;2022-07-19T03:02:43;93275.38;;;14.76;68.50
53041;BME280;39326;42.650;23.248;2022-07-19T03:05:08;93277.69;;;14.74;68.72
53041;BME280;39326;42.650;23.248;2022-07-19T03:07:35;93280.38;;;14.74;68.60
53041;BME280;39326;42.650;23.248;2022-07-19T03:10:00;93271.56;;;14.70;68.85
53041;BME280;39326;42.650;23.248;2022-07-19T03:12:26;93275.00;;;14.74;68.43
53041;BME280;39326;42.650;23.248;2022-07-19T03:14:51;93279.22;;;14.71;68.72
53041;BME280;39326;42.650;23.248;2022-07-19T03:17:17;93279.97;;;14.72;68.86
53041;BME280;39326;42.650;23.248;2022-07-19T03:19:42;93282.66;;;14.72;69.21
53041;BME280;39326;42.650;23.248;2022-07-19T03:22:08;93284.94;;;14.77;69.05
53041;BME280;39326;42.650;23.248;2022-07-19T03:24:33;93282.28;;;14.73;69.02
53041;BME280;39326;42.650;23.248;2022-07-19T03:26:59;93279.56;;;14.77;68.88
53041;BME280;39326;42.650;23.248;2022-07-19T03:29:24;93286.50;;;14.74;69.47
53041;BME280;39326;42.650;23.248;2022-07-19T03:31:50;93278.03;;;14.79;69.05
53041;BME280;39326;42.650;23.248;2022-07-19T03:34:16;93286.47;;;14.78;69.29
53041;BME280;39326;42.650;23.248;2022-07-19T03:36:42;93284.53;;;14.82;69.07
53041;BME280;39326;42.650;23.248;2022-07-19T03:39:07;93288.00;;;14.86;68.92
53041;BME280;39326;42.650;23.248;2022-07-19T03:41:33;93286.44;;;14.88;69.06
53041;BME280;39326;42.650;23.248;2022-07-19T03:43:58;93288.34;;;14.91;69.21
53041;BME280;39326;42.650;23.248;2022-07-19T03:46:24;93285.25;;;14.97;69.60
53041;BME280;39326;42.650;23.248;2022-07-19T03:48:51;93291.38;;;15.01;69.07
53041;BME280;39326;42.650;23.248;2022-07-19T03:51:16;93299.81;;;15.03;69.29
53041;BME280;39326;42.650;23.248;2022-07-19T03:53:42;93297.13;;;15.06;69.41
53041;BME280;39326;42.650;23.248;2022-07-19T03:56:07;93298.63;;;15.11;69.66
53041;BME280;39326;42.650;23.248;2022-07-19T03:58:33;93299.38;;;15.15;69.78
53041;BME280;39326;42.650;23.248;2022-07-19T04:00:58;93304.34;;;15.20;69.27
53041;BME280;39326;42.650;23.248;2022-07-19T04:03:24;93315.03;;;15.27;69.08
53041;BME280;39326;42.650;23.248;2022-07-19T04:05:49;93312.75;;;15.26;69.30
53041;BME280;39326;42.650;23.248;2022-07-19T04:08:15;93316.91;;;15.34;68.84
53041;BME280;39326;42.650;23.248;2022-07-19T04:10:41;93321.47;;;15.40;68.76
53041;BME280;39326;42.650;23.248;2022-07-19T04:13:07;93315.34;;;15.43;68.76
53041;BME280;39326;42.650;23.248;2022-07-19T04:15:32;93318.78;;;15.44;68.78
53041;BME280;39326;42.650;23.248;2022-07-19T04:17:58;93319.91;;;15.50;68.31
53041;BME280;39326;42.650;23.248;2022-07-19T04:20:23;93317.91;;;15.58;67.95
53041;BME280;39326;42.650;23.248;2022-07-19T04:22:49;93317.09;;;15.64;67.75
53041;BME280;39326;42.650;23.248;2022-07-19T04:25:14;93320.50;;;15.72;67.80
53041;BME280;39326;42.650;23.248;2022-07-19T04:27:40;93322.00;;;15.80;66.94
53041;BME280;39326;42.650;23.248;2022-07-19T04:30:06;93309.31;;;15.81;67.37
53041;BME280;39326;42.650;23.248;2022-07-19T04:32:32;93313.88;;;15.87;66.92
53041;BME280;39326;42.650;23.248;2022-07-19T04:34:59;93315.00;;;15.93;67.00
53041;BME280;39326;42.650;23.248;2022-07-19T04:37:24;93301.91;;;15.95;66.91
53041;BME280;39326;42.650;23.248;2022-07-19T04:39:50;93311.91;;;15.91;66.88
53041;BME280;39326;42.650;23.248;2022-07-19T04:42:15;93301.88;;;15.99;66.80
53041;BME280;39326;42.650;23.248;2022-07-19T04:44:41;93311.84;;;16.02;67.07
53041;BME280;39326;42.650;23.248;2022-07-19T04:47:06;93309.81;;;16.13;66.65
53041;BME280;39326;42.650;23.248;2022-07-19T04:49:32;93319.34;;;16.21;66.25
53041;BME280;39326;42.650;23.248;2022-07-19T04:51:57;93310.44;;;16.28;65.98
53041;BME280;39326;42.650;23.248;2022-07-19T04:54:23;93318.81;;;16.37;65.65
53041;BME280;39326;42.650;23.248;2022-07-19T04:56:48;93316.88;;;16.38;65.90
53041;BME280;39326;42.650;23.248;2022-07-19T04:59:14;93323.81;;;16.35;66.07
53041;BME280;39326;42.650;23.248;2022-07-19T05:01:39;93319.16;;;16.43;65.78
53041;BME280;39326;42.650;23.248;2022-07-19T05:04:05;93327.09;;;16.53;65.59
53041;BME280;39326;42.650;23.248;2022-07-19T05:06:30;93322.63;;;16.40;65.62
53041;BME280;39326;42.650;23.248;2022-07-19T05:08:56;93330.59;;;16.50;64.95
53041;BME280;39326;42.650;23.248;2022-07-19T05:11:22;93326.59;;;16.66;64.89
53041;BME280;39326;42.650;23.248;2022-07-19T05:13:48;93320.69;;;16.78;64.79
53041;BME280;39326;42.650;23.248;2022-07-19T05:16:13;93322.13;;;16.86;64.81
53041;BME280;39326;42.650;23.248;2022-07-19T05:18:39;93321.50;;;16.75;65.40
53041;BME280;39326;42.650;23.248;2022-07-19T05:21:04;93310.31;;;16.76;65.36
53041;BME280;39326;42.650;23.248;2022-07-19T05:23:30;93318.13;;;17.01;64.60
53041;BME280;39326;42.650;23.248;2022-07-19T05:25:56;93322.47;;;16.92;65.19
53041;BME280;39326;42.650;23.248;2022-07-19T05:28:22;93311.06;;;17.11;64.94
53041;BME280;39326;42.650;23.248;2022-07-19T05:30:48;93322.78;;;17.28;64.39
53041;BME280;39326;42.650;23.248;2022-07-19T05:33:13;93323.31;;;17.46;63.55
53041;BME280;39326;42.650;23.248;2022-07-19T05:35:40;93332.34;;;17.32;64.26
53041;BME280;39326;42.650;23.248;2022-07-19T05:38:06;93335.69;;;17.44;63.82
53041;BME280;39326;42.650;23.248;2022-07-19T05:40:31;93326.34;;;17.48;64.06
53041;BME280;39326;42.650;23.248;2022-07-19T05:42:57;93323.75;;;17.68;63.48
53041;BME280;39326;42.650;23.248;2022-07-19T05:45:22;93329.09;;;17.72;63.58
53041;BME280;39326;42.650;23.248;2022-07-19T05:47:48;93328.53;;;17.88;62.99
53041;BME280;39326;42.650;23.248;2022-07-19T05:50:13;93336.97;;;17.90;62.89
53041;BME280;39326;42.650;23.248;2022-07-19T05:52:39;93324.75;;;18.05;62.12
53041;BME280;39326;42.650;23.248;2022-07-19T05:55:05;93323.75;;;18.19;61.65
53041;BME280;39326;42.650;23.248;2022-07-19T05:57:31;93324.47;;;18.23;61.55
53041;BME280;39326;42.650;23.248;2022-07-19T05:59:56;93325.47;;;18.32;61.63
53041;BME280;39326;42.650;23.248;2022-07-19T06:02:22;93318.69;;;18.44;60.54
53041;BME280;39326;42.650;23.248;2022-07-19T06:04:47;93319.94;;;18.39;61.23
53041;BME280;39326;42.650;23.248;2022-07-19T06:07:13;93323.44;;;18.36;60.12
53041;BME280;39326;42.650;23.248;2022-07-19T06:09:38;93327.91;;;18.47;60.53
53041;BME280;39326;42.650;23.248;2022-07-19T06:12:04;93323.41;;;18.40;61.70
53041;BME280;39326;42.650;23.248;2022-07-19T06:14:29;93319.09;;;18.43;61.30
53041;BME280;39326;42.650;23.248;2022-07-19T06:16:54;93320.56;;;18.47;61.12
53041;BME280;39326;42.650;23.248;2022-07-19T06:19:20;93324.25;;;18.57;61.03
53041;BME280;39326;42.650;23.248;2022-07-19T06:21:45;93322.84;;;18.72;61.17
53041;BME280;39326;42.650;23.248;2022-07-19T06:24:11;93320.75;;;18.80;60.99
53041;BME280;39326;42.650;23.248;2022-07-19T06:26:37;93325.06;;;18.97;60.51
53041;BME280;39326;42.650;23.248;2022-07-19T06:29:02;93325.38;;;19.19;59.34
53041;BME280;39326;42.650;23.248;2022-07-19T06:31:28;93322.13;;;19.28;59.30
53041;BME280;39326;42.650;23.248;2022-07-19T06:33:53;93328.00;;;19.23;58.67
53041;BME280;39326;42.650;23.248;2022-07-19T06:36:19;93314.31;;;19.50;58.28
53041;BME280;39326;42.650;23.248;2022-07-19T06:38:46;93318.59;;;19.47;58.07
53041;BME280;39326;42.650;23.248;2022-07-19T06:41:13;93315.13;;;19.46;57.79
53041;BME280;39326;42.650;23.248;2022-07-19T06:43:40;93320.19;;;19.44;57.61
53041;BME280;39326;42.650;23.248;2022-07-19T06:46:06;93317.13;;;19.62;57.19
53041;BME280;39326;42.650;23.248;2022-07-19T06:48:32;93312.66;;;19.72;56.02
53041;BME280;39326;42.650;23.248;2022-07-19T06:50:58;93323.84;;;19.90;55.84
53041;BME280;39326;42.650;23.248;2022-07-19T06:53:23;93319.16;;;20.07;54.80
53041;BME280;39326;42.650;23.248;2022-07-19T06:55:49;93318.91;;;20.18;54.67
53041;BME280;39326;42.650;23.248;2022-07-19T06:58:15;93323.31;;;20.12;55.28
53041;BME280;39326;42.650;23.248;2022-07-19T07:00:40;93315.88;;;20.16;54.38
53041;BME280;39326;42.650;23.248;2022-07-19T07:03:06;93320.19;;;20.13;54.97
53041;BME280;39326;42.650;23.248;2022-07-19T07:05:32;93316.13;;;20.21;55.17
53041;BME280;39326;42.650;23.248;2022-07-19T07:07:57;93319.78;;;20.31;54.36
53041;BME280;39326;42.650;23.248;2022-07-19T07:10:23;93317.16;;;20.27;54.08
53041;BME280;39326;42.650;23.248;2022-07-19T07:12:49;93316.47;;;20.40;53.48
53041;BME280;39326;42.650;23.248;2022-07-19T07:15:14;93308.59;;;20.74;53.21
53041;BME280;39326;42.650;23.248;2022-07-19T07:17:40;93312.94;;;20.72;52.92
53041;BME280;39326;42.650;23.248;2022-07-19T07:20:07;93308.47;;;20.65;51.34
53041;BME280;39326;42.650;23.248;2022-07-19T07:22:36;93306.38;;;20.98;52.58
53041;BME280;39326;42.650;23.248;2022-07-19T07:25:03;93312.38;;;21.06;52.30
53041;BME280;39326;42.650;23.248;2022-07-19T07:27:29;93307.38;;;21.04;51.16
53041;BME280;39326;42.650;23.248;2022-07-19T07:29:54;93309.91;;;21.12;51.26
53041;BME280;39326;42.650;23.248;2022-07-19T07:32:20;93301.59;;;21.44;50.92
53041;BME280;39326;42.650;23.248;2022-07-19T07:34:45;93303.34;;;21.51;48.60
53041;BME280;39326;42.650;23.248;2022-07-19T07:37:11;93300.97;;;21.66;48.93
53041;BME280;39326;42.650;23.248;2022-07-19T07:39:36;93309.13;;;21.78;47.64
53041;BME280;39326;42.650;23.248;2022-07-19T07:42:03;93301.63;;;21.95;46.34
53041;BME280;39326;42.650;23.248;2022-07-19T07:44:30;93303.47;;;21.98;46.17
53041;BME280;39326;42.650;23.248;2022-07-19T07:46:56;93297.06;;;22.05;45.57
53041;BME280;39326;42.650;23.248;2022-07-19T07:49:21;93291.47;;;22.08;45.45
53041;BME280;39326;42.650;23.248;2022-07-19T07:51:47;93299.72;;;22.30;44.09
53041;BME280;39326;42.650;23.248;2022-07-19T07:54:13;93294.22;;;22.56;44.03
53041;BME280;39326;42.650;23.248;2022-07-19T07:56:38;93286.72;;;22.60;42.85
53041;BME280;39326;42.650;23.248;2022-07-19T07:59:04;93289.25;;;22.41;41.62
53041;BME280;39326;42.650;23.248;2022-07-19T08:01:29;93277.03;;;22.59;40.83
53041;BME280;39326;42.650;23.248;2022-07-19T08:03:56;93287.66;;;22.66;42.61
53041;BME280;39326;42.650;23.248;2022-07-19T08:06:21;93286.03;;;22.90;41.97
53041;BME280;39326;42.650;23.248;2022-07-19T08:08:47;93297.94;;;23.15;41.58
53041;BME280;39326;42.650;23.248;2022-07-19T08:11:12;93285.59;;;22.92;40.64
53041;BME280;39326;42.650;23.248;2022-07-19T08:13:38;93286.78;;;22.69;39.92
53041;BME280;39326;42.650;23.248;2022-07-19T08:16:03;93290.69;;;22.90;40.80
53041;BME280;39326;42.650;23.248;2022-07-19T08:18:29;93296.78;;;22.72;39.10
53041;BME280;39326;42.650;23.248;2022-07-19T08:20:54;93296.22;;;22.99;39.46
53041;BME280;39326;42.650;23.248;2022-07-19T08:23:20;93290.94;;;23.27;40.23
53041;BME280;39326;42.650;23.248;2022-07-19T08:25:45;93293.59;;;23.17;38.72
53041;BME280;39326;42.650;23.248;2022-07-19T08:28:11;93297.59;;;23.04;39.35
53041;BME280;39326;42.650;23.248;2022-07-19T08:30:36;93296.97;;;23.00;39.82
53041;BME280;39326;42.650;23.248;2022-07-19T08:33:02;93299.03;;;22.95;39.79
53041;BME280;39326;42.650;23.248;2022-07-19T08:35:32;93296.63;;;23.19;40.37
53041;BME280;39326;42.650;23.248;2022-07-19T08:37:57;93294.53;;;23.23;39.91
53041;BME280;39326;42.650;23.248;2022-07-19T08:40:23;93295.56;;;22.95;39.19
53041;BME280;39326;42.650;23.248;2022-07-19T08:42:50;93291.25;;;23.07;39.72
53041;BME280;39326;42.650;23.248;2022-07-19T08:45:16;93285.88;;;23.16;40.31
53041;BME280;39326;42.650;23.248;2022-07-19T08:47:41;93289.97;;;23.42;40.78
53041;BME280;39326;42.650;23.248;2022-07-19T08:50:09;93282.97;;;23.32;38.96
53041;BME280;39326;42.650;23.248;2022-07-19T08:52:37;93283.63;;;23.45;39.29
53041;BME280;39326;42.650;23.248;2022-07-19T08:55:04;93290.84;;;23.39;39.76
53041;BME280;39326;42.650;23.248;2022-07-19T08:57:29;93279.53;;;23.19;38.51
53041;BME280;39326;42.650;23.248;2022-07-19T09:00:13;93286.03;;;23.34;39.97
53041;BME280;39326;42.650;23.248;2022-07-19T09:02:39;93295.38;;;23.11;38.60
53041;BME280;39326;42.650;23.248;2022-07-19T09:05:09;93290.59;;;23.46;39.85
53041;BME280;39326;42.650;23.248;2022-07-19T09:07:39;93287.13;;;23.24;38.73
53041;BME280;39326;42.650;23.248;2022-07-19T09:10:18;93288.69;;;23.03;38.67
53041;BME280;39326;42.650;23.248;2022-07-19T09:13:21;93281.34;;;22.91;37.70
53041;BME280;39326;42.650;23.248;2022-07-19T09:18:29;93281.91;;;23.30;39.27
53041;BME280;39326;42.650;23.248;2022-07-19T09:20:57;93285.16;;;23.87;38.67
53041;BME280;39326;42.650;23.248;2022-07-19T09:23:23;93280.25;;;24.04;38.90
53041;BME280;39326;42.650;23.248;2022-07-19T09:25:52;93284.00;;;23.97;36.55
53041;BME280;39326;42.650;23.248;2022-07-19T09:28:19;93280.41;;;24.18;36.81
53041;BME280;39326;42.650;23.248;2022-07-19T09:30:47;93279.69;;;24.36;36.79
53041;BME280;39326;42.650;23.248;2022-07-19T09:33:23;93278.63;;;24.24;36.83
53041;BME280;39326;42.650;23.248;2022-07-19T09:36:00;93278.94;;;24.45;36.20
53041;BME280;39326;42.650;23.248;2022-07-19T09:38:28;93271.19;;;24.52;36.38
53041;BME280;39326;42.650;23.248;2022-07-19T09:46:36;93280.47;;;24.55;35.06
53041;BME280;39326;42.650;23.248;2022-07-19T09:49:10;93263.06;;;24.80;35.92
53041;BME280;39326;42.650;23.248;2022-07-19T09:51:43;93275.75;;;25.11;35.49
53041;BME280;39326;42.650;23.248;2022-07-19T09:54:11;93272.38;;;25.25;35.44
53041;BME280;39326;42.650;23.248;2022-07-19T09:56:38;93264.13;;;25.52;35.48
53041;BME280;39326;42.650;23.248;2022-07-19T09:59:04;93267.19;;;25.78;34.67
53041;BME280;39326;42.650;23.248;2022-07-19T10:01:30;93264.75;;;25.89;34.94
53041;BME280;39326;42.650;23.248;2022-07-19T10:03:58;93259.31;;;25.80;34.28
53041;BME280;39326;42.650;23.248;2022-07-19T10:06:26;93262.59;;;25.94;34.93
53041;BME280;39326;42.650;23.248;2022-07-19T10:08:55;93258.38;;;25.93;33.79
53041;BME280;39326;42.650;23.248;2022-07-19T10:11:21;93263.22;;;25.79;33.44
53041;BME280;39326;42.650;23.248;2022-07-19T10:13:50;93262.13;;;25.95;33.23
53041;BME280;39326;42.650;23.248;2022-07-19T10:16:20;93263.06;;;25.92;33.45
53041;BME280;39326;42.650;23.248;2022-07-19T10:19:03;93246.22;;;26.18;33.11
53041;BME280;39326;42.650;23.248;2022-07-19T10:21:31;93246.72;;;26.07;33.54
53041;BME280;39326;42.650;23.248;2022-07-19T10:23:57;93251.47;;;25.97;33.52
53041;BME280;39326;42.650;23.248;2022-07-19T10:26:36;93246.56;;;25.77;33.71
53041;BME280;39326;42.650;23.248;2022-07-19T10:29:15;93256.06;;;25.58;34.70
53041;BME280;39326;42.650;23.248;2022-07-19T10:31:42;93242.66;;;25.69;34.17
53041;BME280;39326;42.650;23.248;2022-07-19T10:34:21;93240.44;;;25.92;32.56
53041;BME280;39326;42.650;23.248;2022-07-19T10:36:48;93239.81;;;26.21;33.98
53041;BME280;39326;42.650;23.248;2022-07-19T10:39:27;93247.09;;;26.86;32.95
53041;BME280;39326;42.650;23.248;2022-07-19T10:52:36;93234.81;;;26.96;32.62
53041;BME280;39326;42.650;23.248;2022-07-19T11:00:42;93224.78;;;26.16;33.49
53041;BME280;39326;42.650;23.248;2022-07-19T11:05:50;93223.00;;;25.89;33.10
53041;BME280;39326;42.650;23.248;2022-07-19T11:08:17;93223.09;;;25.95;33.83
53041;BME280;39326;42.650;23.248;2022-07-19T11:10:43;93216.88;;;26.18;32.73
53041;BME280;39326;42.650;23.248;2022-07-19T11:13:08;93212.41;;;26.30;33.19
53041;BME280;39326;42.650;23.248;2022-07-19T11:15:34;93213.09;;;26.15;33.85
53041;BME280;39326;42.650;23.248;2022-07-19T11:18:08;93207.81;;;26.12;33.75
53041;BME280;39326;42.650;23.248;2022-07-19T11:20:37;93213.53;;;26.77;33.97
53041;BME280;39326;42.650;23.248;2022-07-19T11:23:04;93209.44;;;27.26;32.66
53041;BME280;39326;42.650;23.248;2022-07-19T11:25:35;93212.53;;;27.83;31.62
53041;BME280;39326;42.650;23.248;2022-07-19T11:28:01;93202.84;;;28.23;30.52
53041;BME280;39326;42.650;23.248;2022-07-19T11:30:30;93211.47;;;27.95;29.94
53041;BME280;39326;42.650;23.248;2022-07-19T11:33:00;93209.06;;;28.23;31.02
53041;BME280;39326;42.650;23.248;2022-07-19T11:35:26;93207.13;;;28.44;30.34
53041;BME280;39326;42.650;23.248;2022-07-19T11:37:53;93209.56;;;28.63;30.28
53041;BME280;39326;42.650;23.248;2022-07-19T11:40:21;93214.03;;;28.19;30.59
53041;BME280;39326;42.650;23.248;2022-07-19T11:42:48;93212.19;;;27.75;31.15
53041;BME280;39326;42.650;23.248;2022-07-19T11:45:22;93206.13;;;27.21;30.92
53041;BME280;39326;42.650;23.248;2022-07-19T11:47:52;93203.44;;;26.83;31.59
53041;BME280;39326;42.650;23.248;2022-07-19T11:50:22;93188.31;;;26.73;32.66
53041;BME280;39326;42.650;23.248;2022-07-19T11:52:56;93201.91;;;26.67;31.21
53041;BME280;39326;42.650;23.248;2022-07-19T11:55:27;93203.06;;;26.36;32.79
53041;BME280;39326;42.650;23.248;2022-07-19T11:57:54;93205.84;;;26.12;32.95
53041;BME280;39326;42.650;23.248;2022-07-19T12:00:21;93199.25;;;25.95;33.81
53041;BME280;39326;42.650;23.248;2022-07-19T12:03:04;93205.81;;;26.36;33.96
53041;BME280;39326;42.650;23.248;2022-07-19T12:05:37;93191.19;;;26.93;32.22
53041;BME280;39326;42.650;23.248;2022-07-19T12:08:07;93191.28;;;27.43;32.46
53041;BME280;39326;42.650;23.248;2022-07-19T12:10:38;93195.19;;;27.71;31.47
53041;BME280;39326;42.650;23.248;2022-07-19T12:13:07;93195.41;;;27.88;31.07
53041;BME280;39326;42.650;23.248;2022-07-19T12:15:56;93193.84;;;27.82;30.50
53041;BME280;39326;42.650;23.248;2022-07-19T12:18:32;93183.22;;;27.89;31.31
53041;BME280;39326;42.650;23.248;2022-07-19T12:26:35;93182.47;;;27.39;31.01
53041;BME280;39326;42.650;23.248;2022-07-19T12:29:01;93181.09;;;27.14;31.33
53041;BME280;39326;42.650;23.248;2022-07-19T12:31:26;93180.75;;;26.53;31.33
53041;BME280;39326;42.650;23.248;2022-07-19T12:34:01;93177.03;;;26.41;30.94
53041;BME280;39326;42.650;23.248;2022-07-19T12:36:36;93169.84;;;26.67;31.76
53041;BME280;39326;42.650;23.248;2022-07-19T12:39:02;93170.19;;;27.34;31.30
53041;BME280;39326;42.650;23.248;2022-07-19T12:41:28;93164.72;;;27.34;31.01
53041;BME280;39326;42.650;23.248;2022-07-19T12:43:54;93170.03;;;27.08;31.03
53041;BME280;39326;42.650;23.248;2022-07-19T12:46:19;93166.53;;;26.63;30.73
53041;BME280;39326;42.650;23.248;2022-07-19T12:48:45;93166.59;;;26.54;31.86
53041;BME280;39326;42.650;23.248;2022-07-19T12:51:10;93161.16;;;26.84;31.62
53041;BME280;39326;42.650;23.248;2022-07-19T12:53:35;93163.66;;;26.43;31.55
53041;BME280;39326;42.650;23.248;2022-07-19T12:56:01;93163.44;;;25.84;31.45
53041;BME280;39326;42.650;23.248;2022-07-19T12:58:26;93155.91;;;26.03;31.68
53041;BME280;39326;42.650;23.248;2022-07-19T13:01:10;93146.53;;;26.19;32.81
53041;BME280;39326;42.650;23.248;2022-07-19T13:03:38;93156.63;;;26.81;31.93
53041;BME280;39326;42.650;23.248;2022-07-19T13:06:05;93149.56;;;27.18;30.61
53041;BME280;39326;42.650;23.248;2022-07-19T13:08:30;93145.22;;;27.12;30.13
53041;BME280;39326;42.650;23.248;2022-07-19T13:10:57;93153.03;;;26.75;30.79
53041;BME280;39326;42.650;23.248;2022-07-19T13:13:26;93145.34;;;26.49;31.33
53041;BME280;39326;42.650;23.248;2022-07-19T13:15:52;93150.19;;;26.54;31.73
53041;BME280;39326;42.650;23.248;2022-07-19T13:18:17;93147.66;;;26.27;31.68
53041;BME280;39326;42.650;23.248;2022-07-19T13:20:43;93151.28;;;26.33;31.47
53041;BME280;39326;42.650;23.248;2022-07-19T13:23:10;93151.78;;;26.61;31.29